sensor_id;sensor_type;location;lat;lon;timestamp;P1;durP1;ratioP1;P2;durP2;ratioP2
529;SDS011;251;48.704;9.210;2023-01-01T00:01:12;39.88;;;27.15;;
529;SDS011;251;48.704;9.210;2023-01-01T00:03:41;42.85;;;26.65;;
529;SDS011;251;48.704;9.210;2023-01-01T00:06:08;48.35;;;27.20;;
529;SDS011;251;48.704;9.210;2023-01-01T00:08:38;40.00;;;27.98;;
529;SDS011;251;48.704;9.210;2023-01-01T00:11:05;38.42;;;24.90;;
529;SDS011;251;48.704;9.210;2023-01-01T00:13:33;27.60;;;20.53;;
529;SDS011;251;48.704;9.210;2023-01-01T00:16:04;20.23;;;16.73;;
529;SDS011;251;48.704;9.210;2023-01-01T00:18:31;24.23;;;16.67;;
529;SDS011;251;48.704;9.210;2023-01-01T00:21:02;20.77;;;16.65;;
529;SDS011;251;48.704;9.210;2023-01-01T00:23:29;14.70;;;13.07;;
529;SDS011;251;48.704;9.210;2023-01-01T00:25:57;12.25;;;9.15;;
529;SDS011;251;48.704;9.210;2023-01-01T00:28:24;15.48;;;11.90;;
529;SDS011;251;48.704;9.210;2023-01-01T00:30:51;20.02;;;10.48;;
529;SDS011;251;48.704;9.210;2023-01-01T00:33:18;18.17;;;10.45;;
529;SDS011;251;48.704;9.210;2023-01-01T00:35:44;16.25;;;12.77;;
529;SDS011;251;48.704;9.210;2023-01-01T00:38:11;13.73;;;12.35;;
529;SDS011;251;48.704;9.210;2023-01-01T00:40:38;18.98;;;11.48;;
529;SDS011;251;48.704;9.210;2023-01-01T00:43:06;11.65;;;9.68;;
529;SDS011;251;48.704;9.210;2023-01-01T00:45:33;16.50;;;8.43;;
529;SDS011;251;48.704;9.210;2023-01-01T00:47:59;12.98;;;10.40;;
529;SDS011;251;48.704;9.210;2023-01-01T00:50:26;18.13;;;10.80;;
529;SDS011;251;48.704;9.210;2023-01-01T00:52:53;18.15;;;9.48;;
529;SDS011;251;48.704;9.210;2023-01-01T00:55:20;13.90;;;11.02;;
529;SDS011;251;48.704;9.210;2023-01-01T00:57:46;9.02;;;7.75;;
529;SDS011;251;48.704;9.210;2023-01-01T01:00:15;7.88;;;5.78;;
529;SDS011;251;48.704;9.210;2023-01-01T01:02:42;15.20;;;8.20;;
529;SDS011;251;48.704;9.210;2023-01-01T01:05:09;41.13;;;8.48;;
529;SDS011;251;48.704;9.210;2023-01-01T01:07:36;11.98;;;9.27;;
529;SDS011;251;48.704;9.210;2023-01-01T01:10:04;13.05;;;7.75;;
529;SDS011;251;48.704;9.210;2023-01-01T01:12:32;8.38;;;6.85;;
529;SDS011;251;48.704;9.210;2023-01-01T01:14:58;14.68;;;8.98;;
529;SDS011;251;48.704;9.210;2023-01-01T01:17:27;11.80;;;8.90;;
529;SDS011;251;48.704;9.210;2023-01-01T01:19:53;9.50;;;7.55;;
529;SDS011;251;48.704;9.210;2023-01-01T01:22:20;11.55;;;9.02;;
529;SDS011;251;48.704;9.210;2023-01-01T01:24:47;17.73;;;8.43;;
529;SDS011;251;48.704;9.210;2023-01-01T01:27:14;13.02;;;9.00;;
529;SDS011;251;48.704;9.210;2023-01-01T01:29:41;11.65;;;7.25;;
529;SDS011;251;48.704;9.210;2023-01-01T01:32:08;10.48;;;7.47;;
529;SDS011;251;48.704;9.210;2023-01-01T01:34:37;12.30;;;8.82;;
529;SDS011;251;48.704;9.210;2023-01-01T01:37:04;20.55;;;10.95;;
529;SDS011;251;48.704;9.210;2023-01-01T01:39:31;11.30;;;9.68;;
529;SDS011;251;48.704;9.210;2023-01-01T01:41:57;18.63;;;10.82;;
529;SDS011;251;48.704;9.210;2023-01-01T01:47:19;20.45;;;10.57;;
529;SDS011;251;48.704;9.210;2023-01-01T01:49:52;13.07;;;10.02;;
529;SDS011;251;48.704;9.210;2023-01-01T01:52:22;17.80;;;8.80;;
529;SDS011;251;48.704;9.210;2023-01-01T01:54:50;21.58;;;15.27;;
529;SDS011;251;48.704;9.210;2023-01-01T01:57:17;20.50;;;13.75;;
529;SDS011;251;48.704;9.210;2023-01-01T01:59:46;26.13;;;14.65;;
529;SDS011;251;48.704;9.210;2023-01-01T02:02:17;16.98;;;13.35;;
529;SDS011;251;48.704;9.210;2023-01-01T02:04:53;10.68;;;9.57;;
529;SDS011;251;48.704;9.210;2023-01-01T02:07:20;17.67;;;12.10;;
529;SDS011;251;48.704;9.210;2023-01-01T02:09:48;16.20;;;12.15;;
529;SDS011;251;48.704;9.210;2023-01-01T02:12:15;15.93;;;11.90;;
529;SDS011;251;48.704;9.210;2023-01-01T02:14:42;17.00;;;13.60;;
529;SDS011;251;48.704;9.210;2023-01-01T02:17:11;14.25;;;10.38;;
529;SDS011;251;48.704;9.210;2023-01-01T02:19:43;20.80;;;10.32;;
529;SDS011;251;48.704;9.210;2023-01-01T02:22:25;17.40;;;11.48;;
529;SDS011;251;48.704;9.210;2023-01-01T02:25:04;14.38;;;10.45;;
529;SDS011;251;48.704;9.210;2023-01-01T02:27:40;11.90;;;10.07;;
529;SDS011;251;48.704;9.210;2023-01-01T02:30:16;22.33;;;13.15;;
529;SDS011;251;48.704;9.210;2023-01-01T02:32:44;16.33;;;12.50;;
529;SDS011;251;48.704;9.210;2023-01-01T02:35:15;18.95;;;12.50;;
529;SDS011;251;48.704;9.210;2023-01-01T02:38:04;19.85;;;12.85;;
529;SDS011;251;48.704;9.210;2023-01-01T02:40:34;36.85;;;18.58;;
529;SDS011;251;48.704;9.210;2023-01-01T02:43:05;15.80;;;12.70;;
529;SDS011;251;48.704;9.210;2023-01-01T02:45:33;23.30;;;15.50;;
529;SDS011;251;48.704;9.210;2023-01-01T02:48:04;21.58;;;12.20;;
529;SDS011;251;48.704;9.210;2023-01-01T02:50:33;15.75;;;11.00;;
529;SDS011;251;48.704;9.210;2023-01-01T02:53:04;18.10;;;14.50;;
529;SDS011;251;48.704;9.210;2023-01-01T02:55:44;21.20;;;11.85;;
529;SDS011;251;48.704;9.210;2023-01-01T02:58:16;17.52;;;12.23;;
529;SDS011;251;48.704;9.210;2023-01-01T03:01:11;15.65;;;11.32;;
529;SDS011;251;48.704;9.210;2023-01-01T03:03:46;21.85;;;12.65;;
529;SDS011;251;48.704;9.210;2023-01-01T03:06:22;18.25;;;10.27;;
529;SDS011;251;48.704;9.210;2023-01-01T03:09:00;18.10;;;10.43;;
529;SDS011;251;48.704;9.210;2023-01-01T03:11:38;16.88;;;12.05;;
529;SDS011;251;48.704;9.210;2023-01-01T03:14:11;23.55;;;14.02;;
529;SDS011;251;48.704;9.210;2023-01-01T03:16:46;16.63;;;10.65;;
529;SDS011;251;48.704;9.210;2023-01-01T03:19:16;12.23;;;10.05;;
529;SDS011;251;48.704;9.210;2023-01-01T03:21:47;14.13;;;8.75;;
529;SDS011;251;48.704;9.210;2023-01-01T03:24:17;10.25;;;6.15;;
529;SDS011;251;48.704;9.210;2023-01-01T03:26:49;13.85;;;6.78;;
529;SDS011;251;48.704;9.210;2023-01-01T03:29:19;4.60;;;4.10;;
529;SDS011;251;48.704;9.210;2023-01-01T03:31:49;8.45;;;4.03;;
529;SDS011;251;48.704;9.210;2023-01-01T03:34:20;6.50;;;4.50;;
529;SDS011;251;48.704;9.210;2023-01-01T03:36:53;5.22;;;3.83;;
529;SDS011;251;48.704;9.210;2023-01-01T03:39:24;8.85;;;4.30;;
529;SDS011;251;48.704;9.210;2023-01-01T03:41:55;5.55;;;4.10;;
529;SDS011;251;48.704;9.210;2023-01-01T03:44:26;3.45;;;2.63;;
529;SDS011;251;48.704;9.210;2023-01-01T03:46:58;7.13;;;4.40;;
529;SDS011;251;48.704;9.210;2023-01-01T03:49:26;4.88;;;3.28;;
529;SDS011;251;48.704;9.210;2023-01-01T03:51:56;5.80;;;4.70;;
529;SDS011;251;48.704;9.210;2023-01-01T03:54:31;4.43;;;3.63;;
529;SDS011;251;48.704;9.210;2023-01-01T03:57:04;6.75;;;4.93;;
529;SDS011;251;48.704;9.210;2023-01-01T03:59:38;7.18;;;4.35;;
529;SDS011;251;48.704;9.210;2023-01-01T04:02:14;5.50;;;4.78;;
529;SDS011;251;48.704;9.210;2023-01-01T04:04:44;12.15;;;7.93;;
529;SDS011;251;48.704;9.210;2023-01-01T04:07:12;14.13;;;8.90;;
529;SDS011;251;48.704;9.210;2023-01-01T04:09:39;13.23;;;9.43;;
529;SDS011;251;48.704;9.210;2023-01-01T04:12:10;13.35;;;9.63;;
529;SDS011;251;48.704;9.210;2023-01-01T04:14:38;9.85;;;7.63;;
529;SDS011;251;48.704;9.210;2023-01-01T04:17:06;12.65;;;9.90;;
529;SDS011;251;48.704;9.210;2023-01-01T04:19:36;11.48;;;8.20;;
529;SDS011;251;48.704;9.210;2023-01-01T04:22:04;8.93;;;6.03;;
529;SDS011;251;48.704;9.210;2023-01-01T04:24:31;9.23;;;7.30;;
529;SDS011;251;48.704;9.210;2023-01-01T04:26:57;12.60;;;7.43;;
529;SDS011;251;48.704;9.210;2023-01-01T04:29:24;10.40;;;7.05;;
529;SDS011;251;48.704;9.210;2023-01-01T04:31:51;6.68;;;5.47;;
529;SDS011;251;48.704;9.210;2023-01-01T04:34:18;9.07;;;4.88;;
529;SDS011;251;48.704;9.210;2023-01-01T04:36:46;8.13;;;5.15;;
529;SDS011;251;48.704;9.210;2023-01-01T04:39:13;11.20;;;6.15;;
529;SDS011;251;48.704;9.210;2023-01-01T04:41:39;11.43;;;7.15;;
529;SDS011;251;48.704;9.210;2023-01-01T04:44:06;9.30;;;5.05;;
529;SDS011;251;48.704;9.210;2023-01-01T04:46:33;8.27;;;6.10;;
529;SDS011;251;48.704;9.210;2023-01-01T04:49:00;10.38;;;6.32;;
529;SDS011;251;48.704;9.210;2023-01-01T04:51:26;9.35;;;8.23;;
529;SDS011;251;48.704;9.210;2023-01-01T04:53:54;10.25;;;6.45;;
529;SDS011;251;48.704;9.210;2023-01-01T04:56:21;12.05;;;8.35;;
529;SDS011;251;48.704;9.210;2023-01-01T04:58:48;9.13;;;6.03;;
529;SDS011;251;48.704;9.210;2023-01-01T05:01:16;14.85;;;7.57;;
529;SDS011;251;48.704;9.210;2023-01-01T05:03:45;9.52;;;5.70;;
529;SDS011;251;48.704;9.210;2023-01-01T05:06:12;9.50;;;6.22;;
529;SDS011;251;48.704;9.210;2023-01-01T05:08:41;9.85;;;7.05;;
529;SDS011;251;48.704;9.210;2023-01-01T05:11:10;11.00;;;6.10;;
529;SDS011;251;48.704;9.210;2023-01-01T05:13:38;8.20;;;6.20;;
529;SDS011;251;48.704;9.210;2023-01-01T05:16:07;9.25;;;6.20;;
529;SDS011;251;48.704;9.210;2023-01-01T05:18:35;10.82;;;6.20;;
529;SDS011;251;48.704;9.210;2023-01-01T05:21:06;10.10;;;7.05;;
529;SDS011;251;48.704;9.210;2023-01-01T05:23:34;7.28;;;4.90;;
529;SDS011;251;48.704;9.210;2023-01-01T05:26:07;8.75;;;6.53;;
529;SDS011;251;48.704;9.210;2023-01-01T05:28:36;6.07;;;4.03;;
529;SDS011;251;48.704;9.210;2023-01-01T05:31:04;3.45;;;2.13;;
529;SDS011;251;48.704;9.210;2023-01-01T05:33:31;6.43;;;2.90;;
529;SDS011;251;48.704;9.210;2023-01-01T05:35:58;7.30;;;3.22;;
529;SDS011;251;48.704;9.210;2023-01-01T05:38:25;4.38;;;2.95;;
529;SDS011;251;48.704;9.210;2023-01-01T05:40:51;3.45;;;2.13;;
529;SDS011;251;48.704;9.210;2023-01-01T05:43:18;8.48;;;2.53;;
529;SDS011;251;48.704;9.210;2023-01-01T05:45:46;3.65;;;1.88;;
529;SDS011;251;48.704;9.210;2023-01-01T05:48:13;6.43;;;3.00;;
529;SDS011;251;48.704;9.210;2023-01-01T05:50:40;5.43;;;3.25;;
529;SDS011;251;48.704;9.210;2023-01-01T05:53:07;2.97;;;1.83;;
529;SDS011;251;48.704;9.210;2023-01-01T05:55:33;3.25;;;1.67;;
529;SDS011;251;48.704;9.210;2023-01-01T05:58:00;2.92;;;1.60;;
529;SDS011;251;48.704;9.210;2023-01-01T06:00:27;4.28;;;2.45;;
529;SDS011;251;48.704;9.210;2023-01-01T06:02:55;5.13;;;1.80;;
529;SDS011;251;48.704;9.210;2023-01-01T06:05:22;4.38;;;3.58;;
529;SDS011;251;48.704;9.210;2023-01-01T06:07:49;4.22;;;2.42;;
529;SDS011;251;48.704;9.210;2023-01-01T06:10:15;4.28;;;2.65;;
529;SDS011;251;48.704;9.210;2023-01-01T06:12:42;6.00;;;4.03;;
529;SDS011;251;48.704;9.210;2023-01-01T06:15:09;4.03;;;3.70;;
529;SDS011;251;48.704;9.210;2023-01-01T06:17:36;3.85;;;2.78;;
529;SDS011;251;48.704;9.210;2023-01-01T06:20:04;3.42;;;2.45;;
529;SDS011;251;48.704;9.210;2023-01-01T06:22:34;4.35;;;2.20;;
529;SDS011;251;48.704;9.210;2023-01-01T06:25:01;6.07;;;2.63;;
529;SDS011;251;48.704;9.210;2023-01-01T06:27:28;4.80;;;3.53;;
529;SDS011;251;48.704;9.210;2023-01-01T06:29:54;4.90;;;3.28;;
529;SDS011;251;48.704;9.210;2023-01-01T06:32:22;3.55;;;2.30;;
529;SDS011;251;48.704;9.210;2023-01-01T06:34:49;5.70;;;3.88;;
529;SDS011;251;48.704;9.210;2023-01-01T06:37:17;4.13;;;2.58;;
529;SDS011;251;48.704;9.210;2023-01-01T06:39:44;6.40;;;3.20;;
529;SDS011;251;48.704;9.210;2023-01-01T06:42:10;4.68;;;2.83;;
529;SDS011;251;48.704;9.210;2023-01-01T06:44:38;4.32;;;2.70;;
529;SDS011;251;48.704;9.210;2023-01-01T06:47:05;6.90;;;3.30;;
529;SDS011;251;48.704;9.210;2023-01-01T06:49:32;4.60;;;2.78;;
529;SDS011;251;48.704;9.210;2023-01-01T06:51:58;2.97;;;2.67;;
529;SDS011;251;48.704;9.210;2023-01-01T06:54:26;6.75;;;4.82;;
529;SDS011;251;48.704;9.210;2023-01-01T06:56:53;4.50;;;3.50;;
529;SDS011;251;48.704;9.210;2023-01-01T06:59:20;6.50;;;4.05;;
529;SDS011;251;48.704;9.210;2023-01-01T07:01:47;4.60;;;2.83;;
529;SDS011;251;48.704;9.210;2023-01-01T07:04:14;5.20;;;2.90;;
529;SDS011;251;48.704;9.210;2023-01-01T07:06:41;7.03;;;4.25;;
529;SDS011;251;48.704;9.210;2023-01-01T07:09:08;6.60;;;3.50;;
529;SDS011;251;48.704;9.210;2023-01-01T07:11:36;3.03;;;2.22;;
529;SDS011;251;48.704;9.210;2023-01-01T07:14:03;4.35;;;2.90;;
529;SDS011;251;48.704;9.210;2023-01-01T07:16:29;5.47;;;3.80;;
529;SDS011;251;48.704;9.210;2023-01-01T07:18:56;3.65;;;2.63;;
529;SDS011;251;48.704;9.210;2023-01-01T07:21:25;7.05;;;4.28;;
529;SDS011;251;48.704;9.210;2023-01-01T07:23:54;3.95;;;2.97;;
529;SDS011;251;48.704;9.210;2023-01-01T07:26:22;4.30;;;3.55;;
529;SDS011;251;48.704;9.210;2023-01-01T07:28:50;5.20;;;2.65;;
529;SDS011;251;48.704;9.210;2023-01-01T07:31:17;6.07;;;4.20;;
529;SDS011;251;48.704;9.210;2023-01-01T07:33:44;6.90;;;3.75;;
529;SDS011;251;48.704;9.210;2023-01-01T07:36:11;5.10;;;2.80;;
529;SDS011;251;48.704;9.210;2023-01-01T07:38:38;4.47;;;3.20;;
529;SDS011;251;48.704;9.210;2023-01-01T07:41:05;8.90;;;3.00;;
529;SDS011;251;48.704;9.210;2023-01-01T07:43:32;4.57;;;2.78;;
529;SDS011;251;48.704;9.210;2023-01-01T07:46:00;5.22;;;3.03;;
529;SDS011;251;48.704;9.210;2023-01-01T07:48:28;4.75;;;3.35;;
529;SDS011;251;48.704;9.210;2023-01-01T07:50:55;3.97;;;2.05;;
529;SDS011;251;48.704;9.210;2023-01-01T07:53:21;6.15;;;2.47;;
529;SDS011;251;48.704;9.210;2023-01-01T07:55:48;3.20;;;2.53;;
529;SDS011;251;48.704;9.210;2023-01-01T07:58:16;5.03;;;3.17;;
529;SDS011;251;48.704;9.210;2023-01-01T08:00:44;3.88;;;2.08;;
529;SDS011;251;48.704;9.210;2023-01-01T08:03:13;3.58;;;2.88;;
529;SDS011;251;48.704;9.210;2023-01-01T08:05:39;4.45;;;2.90;;
529;SDS011;251;48.704;9.210;2023-01-01T08:08:06;2.25;;;1.30;;
529;SDS011;251;48.704;9.210;2023-01-01T08:10:34;3.00;;;1.88;;
529;SDS011;251;48.704;9.210;2023-01-01T08:13:02;8.27;;;2.70;;
529;SDS011;251;48.704;9.210;2023-01-01T08:15:29;4.72;;;3.20;;
529;SDS011;251;48.704;9.210;2023-01-01T08:17:57;2.47;;;1.75;;
529;SDS011;251;48.704;9.210;2023-01-01T08:20:26;3.67;;;1.90;;
529;SDS011;251;48.704;9.210;2023-01-01T08:22:53;3.15;;;2.55;;
529;SDS011;251;48.704;9.210;2023-01-01T08:25:20;5.65;;;2.88;;
529;SDS011;251;48.704;9.210;2023-01-01T08:27:47;4.15;;;2.92;;
529;SDS011;251;48.704;9.210;2023-01-01T08:30:15;2.80;;;2.22;;
529;SDS011;251;48.704;9.210;2023-01-01T08:32:42;4.90;;;2.75;;
529;SDS011;251;48.704;9.210;2023-01-01T08:35:09;6.90;;;2.75;;
529;SDS011;251;48.704;9.210;2023-01-01T08:37:37;3.47;;;3.17;;
529;SDS011;251;48.704;9.210;2023-01-01T08:40:04;4.82;;;2.40;;
529;SDS011;251;48.704;9.210;2023-01-01T08:42:32;2.42;;;1.77;;
529;SDS011;251;48.704;9.210;2023-01-01T08:44:59;3.58;;;1.83;;
529;SDS011;251;48.704;9.210;2023-01-01T08:47:25;20.73;;;3.92;;
529;SDS011;251;48.704;9.210;2023-01-01T08:49:52;3.65;;;3.20;;
529;SDS011;251;48.704;9.210;2023-01-01T08:52:19;2.72;;;2.00;;
529;SDS011;251;48.704;9.210;2023-01-01T08:54:47;4.15;;;3.15;;
529;SDS011;251;48.704;9.210;2023-01-01T08:57:14;5.25;;;2.88;;
529;SDS011;251;48.704;9.210;2023-01-01T08:59:41;4.18;;;2.67;;
529;SDS011;251;48.704;9.210;2023-01-01T09:02:08;5.45;;;3.20;;
529;SDS011;251;48.704;9.210;2023-01-01T09:04:35;3.42;;;2.58;;
529;SDS011;251;48.704;9.210;2023-01-01T09:07:02;3.35;;;2.72;;
529;SDS011;251;48.704;9.210;2023-01-01T09:09:29;3.08;;;2.60;;
529;SDS011;251;48.704;9.210;2023-01-01T09:11:57;2.80;;;2.15;;
529;SDS011;251;48.704;9.210;2023-01-01T09:14:30;3.20;;;2.72;;
529;SDS011;251;48.704;9.210;2023-01-01T09:16:57;5.05;;;2.35;;
529;SDS011;251;48.704;9.210;2023-01-01T09:19:24;4.80;;;2.50;;
529;SDS011;251;48.704;9.210;2023-01-01T09:21:51;2.30;;;1.80;;
529;SDS011;251;48.704;9.210;2023-01-01T09:24:18;2.90;;;2.15;;
529;SDS011;251;48.704;9.210;2023-01-01T09:26:45;5.57;;;3.45;;
529;SDS011;251;48.704;9.210;2023-01-01T09:29:13;3.42;;;3.10;;
529;SDS011;251;48.704;9.210;2023-01-01T09:31:42;4.65;;;2.95;;
529;SDS011;251;48.704;9.210;2023-01-01T09:34:10;5.85;;;3.95;;
529;SDS011;251;48.704;9.210;2023-01-01T09:36:36;7.50;;;4.20;;
529;SDS011;251;48.704;9.210;2023-01-01T09:39:03;4.63;;;2.97;;
529;SDS011;251;48.704;9.210;2023-01-01T09:41:38;20.55;;;4.10;;
529;SDS011;251;48.704;9.210;2023-01-01T09:44:16;6.38;;;4.40;;
529;SDS011;251;48.704;9.210;2023-01-01T09:46:51;4.65;;;3.15;;
529;SDS011;251;48.704;9.210;2023-01-01T09:49:21;4.05;;;3.30;;
529;SDS011;251;48.704;9.210;2023-01-01T09:51:56;7.80;;;3.83;;
529;SDS011;251;48.704;9.210;2023-01-01T09:54:26;5.75;;;2.75;;
529;SDS011;251;48.704;9.210;2023-01-01T09:56:55;5.28;;;4.07;;
529;SDS011;251;48.704;9.210;2023-01-01T09:59:25;4.05;;;3.53;;
529;SDS011;251;48.704;9.210;2023-01-01T10:01:56;7.75;;;3.75;;
529;SDS011;251;48.704;9.210;2023-01-01T10:04:35;6.05;;;2.97;;
529;SDS011;251;48.704;9.210;2023-01-01T10:07:12;3.58;;;3.28;;
529;SDS011;251;48.704;9.210;2023-01-01T10:09:45;5.75;;;2.92;;
529;SDS011;251;48.704;9.210;2023-01-01T10:12:24;4.43;;;2.80;;
529;SDS011;251;48.704;9.210;2023-01-01T10:15:03;11.88;;;6.82;;
529;SDS011;251;48.704;9.210;2023-01-01T10:17:39;11.73;;;5.43;;
529;SDS011;251;48.704;9.210;2023-01-01T10:20:13;15.27;;;7.80;;
529;SDS011;251;48.704;9.210;2023-01-01T10:22:45;10.50;;;6.55;;
529;SDS011;251;48.704;9.210;2023-01-01T10:25:17;5.20;;;3.85;;
529;SDS011;251;48.704;9.210;2023-01-01T10:27:46;5.75;;;4.45;;
529;SDS011;251;48.704;9.210;2023-01-01T10:30:17;2.90;;;2.60;;
529;SDS011;251;48.704;9.210;2023-01-01T10:32:46;4.60;;;2.97;;
529;SDS011;251;48.704;9.210;2023-01-01T10:35:15;3.95;;;3.17;;
529;SDS011;251;48.704;9.210;2023-01-01T10:37:43;4.60;;;3.33;;
529;SDS011;251;48.704;9.210;2023-01-01T10:40:14;3.22;;;2.15;;
529;SDS011;251;48.704;9.210;2023-01-01T10:42:47;5.15;;;2.45;;
529;SDS011;251;48.704;9.210;2023-01-01T10:45:18;3.80;;;2.95;;
529;SDS011;251;48.704;9.210;2023-01-01T10:50:39;13.05;;;3.42;;
529;SDS011;251;48.704;9.210;2023-01-01T10:53:17;3.25;;;2.35;;
529;SDS011;251;48.704;9.210;2023-01-01T10:56:03;3.20;;;2.30;;
529;SDS011;251;48.704;9.210;2023-01-01T10:58:33;3.03;;;2.03;;
529;SDS011;251;48.704;9.210;2023-01-01T11:01:04;2.87;;;1.93;;
529;SDS011;251;48.704;9.210;2023-01-01T11:03:32;3.20;;;2.70;;
529;SDS011;251;48.704;9.210;2023-01-01T11:06:00;2.72;;;2.05;;
529;SDS011;251;48.704;9.210;2023-01-01T11:08:30;3.80;;;2.72;;
529;SDS011;251;48.704;9.210;2023-01-01T11:10:59;2.42;;;2.10;;
529;SDS011;251;48.704;9.210;2023-01-01T11:13:27;2.60;;;1.87;;
529;SDS011;251;48.704;9.210;2023-01-01T11:15:55;5.15;;;1.83;;
529;SDS011;251;48.704;9.210;2023-01-01T11:18:25;3.60;;;2.43;;
529;SDS011;251;48.704;9.210;2023-01-01T11:20:59;2.37;;;1.87;;
529;SDS011;251;48.704;9.210;2023-01-01T11:23:28;2.73;;;1.73;;
529;SDS011;251;48.704;9.210;2023-01-01T11:26:04;3.27;;;1.83;;
529;SDS011;251;48.704;9.210;2023-01-01T11:28:32;2.93;;;1.67;;
529;SDS011;251;48.704;9.210;2023-01-01T11:31:04;2.33;;;1.50;;
529;SDS011;251;48.704;9.210;2023-01-01T11:33:38;1.87;;;1.37;;
529;SDS011;251;48.704;9.210;2023-01-01T11:36:09;2.10;;;1.30;;
529;SDS011;251;48.704;9.210;2023-01-01T11:38:37;3.00;;;1.90;;
529;SDS011;251;48.704;9.210;2023-01-01T11:41:04;2.23;;;1.20;;
529;SDS011;251;48.704;9.210;2023-01-01T11:43:35;1.67;;;1.07;;
529;SDS011;251;48.704;9.210;2023-01-01T11:46:05;1.80;;;1.10;;
529;SDS011;251;48.704;9.210;2023-01-01T11:48:34;2.53;;;1.60;;
529;SDS011;251;48.704;9.210;2023-01-01T11:51:03;2.90;;;1.60;;
529;SDS011;251;48.704;9.210;2023-01-01T11:53:33;3.00;;;1.10;;
529;SDS011;251;48.704;9.210;2023-01-01T11:56:03;5.53;;;1.73;;
529;SDS011;251;48.704;9.210;2023-01-01T11:58:37;2.17;;;1.07;;
529;SDS011;251;48.704;9.210;2023-01-01T12:01:13;1.80;;;1.10;;
529;SDS011;251;48.704;9.210;2023-01-01T12:03:46;2.83;;;1.47;;
529;SDS011;251;48.704;9.210;2023-01-01T12:06:19;1.57;;;0.93;;
529;SDS011;251;48.704;9.210;2023-01-01T12:08:51;2.17;;;1.00;;
529;SDS011;251;48.704;9.210;2023-01-01T12:11:24;2.20;;;1.10;;
529;SDS011;251;48.704;9.210;2023-01-01T12:13:56;2.27;;;1.10;;
529;SDS011;251;48.704;9.210;2023-01-01T12:16:30;2.27;;;1.73;;
529;SDS011;251;48.704;9.210;2023-01-01T12:19:05;2.80;;;1.73;;
529;SDS011;251;48.704;9.210;2023-01-01T12:21:39;5.00;;;1.27;;
529;SDS011;251;48.704;9.210;2023-01-01T12:24:09;1.50;;;0.90;;
529;SDS011;251;48.704;9.210;2023-01-01T12:26:43;1.73;;;1.13;;
529;SDS011;251;48.704;9.210;2023-01-01T12:29:26;4.07;;;0.90;;
529;SDS011;251;48.704;9.210;2023-01-01T12:32:03;2.40;;;1.07;;
529;SDS011;251;48.704;9.210;2023-01-01T12:34:36;2.27;;;0.83;;
529;SDS011;251;48.704;9.210;2023-01-01T12:37:12;2.90;;;1.30;;
529;SDS011;251;48.704;9.210;2023-01-01T12:39:58;4.80;;;1.13;;
529;SDS011;251;48.704;9.210;2023-01-01T12:42:50;4.03;;;2.03;;
529;SDS011;251;48.704;9.210;2023-01-01T12:45:30;1.90;;;0.90;;
529;SDS011;251;48.704;9.210;2023-01-01T12:48:21;1.83;;;0.90;;
529;SDS011;251;48.704;9.210;2023-01-01T12:50:58;1.70;;;0.90;;
529;SDS011;251;48.704;9.210;2023-01-01T12:53:33;1.60;;;1.00;;
529;SDS011;251;48.704;9.210;2023-01-01T12:56:11;3.33;;;1.90;;
529;SDS011;251;48.704;9.210;2023-01-01T12:58:42;2.13;;;1.07;;
529;SDS011;251;48.704;9.210;2023-01-01T13:01:11;1.80;;;1.00;;
529;SDS011;251;48.704;9.210;2023-01-01T13:03:46;1.70;;;1.13;;
529;SDS011;251;48.704;9.210;2023-01-01T13:06:15;2.27;;;1.10;;
529;SDS011;251;48.704;9.210;2023-01-01T13:08:47;1.80;;;0.87;;
529;SDS011;251;48.704;9.210;2023-01-01T13:11:17;1.90;;;1.10;;
529;SDS011;251;48.704;9.210;2023-01-01T13:13:44;2.00;;;1.00;;
529;SDS011;251;48.704;9.210;2023-01-01T13:16:12;2.93;;;1.43;;
529;SDS011;251;48.704;9.210;2023-01-01T13:18:58;3.00;;;1.30;;
529;SDS011;251;48.704;9.210;2023-01-01T13:21:25;1.73;;;0.97;;
529;SDS011;251;48.704;9.210;2023-01-01T13:23:56;6.93;;;1.30;;
529;SDS011;251;48.704;9.210;2023-01-01T13:26:40;1.70;;;1.10;;
529;SDS011;251;48.704;9.210;2023-01-01T13:32:08;2.30;;;1.50;;
529;SDS011;251;48.704;9.210;2023-01-01T13:37:30;1.90;;;1.10;;
529;SDS011;251;48.704;9.210;2023-01-01T13:40:31;2.93;;;1.73;;
529;SDS011;251;48.704;9.210;2023-01-01T13:46:02;2.50;;;1.40;;
529;SDS011;251;48.704;9.210;2023-01-01T13:48:40;3.40;;;1.30;;
529;SDS011;251;48.704;9.210;2023-01-01T13:51:26;2.17;;;1.30;;
529;SDS011;251;48.704;9.210;2023-01-01T13:54:10;4.27;;;1.37;;
529;SDS011;251;48.704;9.210;2023-01-01T13:56:48;3.20;;;1.10;;
529;SDS011;251;48.704;9.210;2023-01-01T14:02:17;4.33;;;2.30;;
529;SDS011;251;48.704;9.210;2023-01-01T14:04:49;2.40;;;1.87;;
529;SDS011;251;48.704;9.210;2023-01-01T14:07:26;3.77;;;2.00;;
529;SDS011;251;48.704;9.210;2023-01-01T14:13:15;2.80;;;1.70;;
529;SDS011;251;48.704;9.210;2023-01-01T14:15:45;7.70;;;4.37;;
529;SDS011;251;48.704;9.210;2023-01-01T14:18:18;5.33;;;1.97;;
529;SDS011;251;48.704;9.210;2023-01-01T14:20:49;3.13;;;1.50;;
529;SDS011;251;48.704;9.210;2023-01-01T14:23:18;2.83;;;1.40;;
529;SDS011;251;48.704;9.210;2023-01-01T14:25:49;4.10;;;1.53;;
529;SDS011;251;48.704;9.210;2023-01-01T14:28:18;1.80;;;1.20;;
529;SDS011;251;48.704;9.210;2023-01-01T14:30:49;2.30;;;1.40;;
529;SDS011;251;48.704;9.210;2023-01-01T14:33:20;5.20;;;1.67;;
529;SDS011;251;48.704;9.210;2023-01-01T14:35:51;3.77;;;1.37;;
529;SDS011;251;48.704;9.210;2023-01-01T14:38:23;2.57;;;1.67;;
529;SDS011;251;48.704;9.210;2023-01-01T14:40:58;2.73;;;1.90;;
529;SDS011;251;48.704;9.210;2023-01-01T14:43:28;4.37;;;1.73;;
529;SDS011;251;48.704;9.210;2023-01-01T14:45:55;4.30;;;2.57;;
529;SDS011;251;48.704;9.210;2023-01-01T14:48:22;3.30;;;1.83;;
529;SDS011;251;48.704;9.210;2023-01-01T14:50:49;2.70;;;1.30;;
529;SDS011;251;48.704;9.210;2023-01-01T14:53:19;8.80;;;1.50;;
529;SDS011;251;48.704;9.210;2023-01-01T14:55:49;2.30;;;1.77;;
529;SDS011;251;48.704;9.210;2023-01-01T14:58:17;5.30;;;2.13;;
529;SDS011;251;48.704;9.210;2023-01-01T15:00:49;2.20;;;1.73;;
529;SDS011;251;48.704;9.210;2023-01-01T15:03:17;2.70;;;1.60;;
529;SDS011;251;48.704;9.210;2023-01-01T15:05:46;2.80;;;1.80;;
529;SDS011;251;48.704;9.210;2023-01-01T15:08:23;2.47;;;1.30;;
529;SDS011;251;48.704;9.210;2023-01-01T15:10:51;2.73;;;1.83;;
529;SDS011;251;48.704;9.210;2023-01-01T15:13:20;3.57;;;1.50;;
529;SDS011;251;48.704;9.210;2023-01-01T15:15:50;3.57;;;2.47;;
529;SDS011;251;48.704;9.210;2023-01-01T15:18:33;2.10;;;1.20;;
529;SDS011;251;48.704;9.210;2023-01-01T15:21:01;3.13;;;1.60;;
529;SDS011;251;48.704;9.210;2023-01-01T15:23:29;3.70;;;2.13;;
529;SDS011;251;48.704;9.210;2023-01-01T15:25:56;6.10;;;2.80;;
529;SDS011;251;48.704;9.210;2023-01-01T15:28:23;2.67;;;2.37;;
529;SDS011;251;48.704;9.210;2023-01-01T15:30:52;2.40;;;1.47;;
529;SDS011;251;48.704;9.210;2023-01-01T15:33:20;3.53;;;1.77;;
529;SDS011;251;48.704;9.210;2023-01-01T15:35:48;5.00;;;3.77;;
529;SDS011;251;48.704;9.210;2023-01-01T15:38:16;2.83;;;2.00;;
529;SDS011;251;48.704;9.210;2023-01-01T15:40:46;4.30;;;2.37;;
529;SDS011;251;48.704;9.210;2023-01-01T15:43:15;6.00;;;3.30;;
529;SDS011;251;48.704;9.210;2023-01-01T15:45:55;3.20;;;1.83;;
529;SDS011;251;48.704;9.210;2023-01-01T15:48:26;3.27;;;2.23;;
529;SDS011;251;48.704;9.210;2023-01-01T15:50:57;2.23;;;1.50;;
529;SDS011;251;48.704;9.210;2023-01-01T15:53:50;4.77;;;2.13;;
529;SDS011;251;48.704;9.210;2023-01-01T15:56:21;3.60;;;2.23;;
529;SDS011;251;48.704;9.210;2023-01-01T15:58:51;2.77;;;2.47;;
529;SDS011;251;48.704;9.210;2023-01-01T16:01:23;4.47;;;2.93;;
529;SDS011;251;48.704;9.210;2023-01-01T16:03:53;3.03;;;2.63;;
529;SDS011;251;48.704;9.210;2023-01-01T16:06:26;6.87;;;2.77;;
529;SDS011;251;48.704;9.210;2023-01-01T16:08:53;3.23;;;1.63;;
529;SDS011;251;48.704;9.210;2023-01-01T16:11:20;4.13;;;2.30;;
529;SDS011;251;48.704;9.210;2023-01-01T16:13:47;6.47;;;3.43;;
529;SDS011;251;48.704;9.210;2023-01-01T16:16:18;3.03;;;2.33;;
529;SDS011;251;48.704;9.210;2023-01-01T16:18:53;4.07;;;2.20;;